sensor_id;sensor_type;location;lat;lon;timestamp;temperature;humidity
61912;DHT22;49973;52.084;5.412;2023-05-10T00:00:41;13.40;99.90
61912;DHT22;49973;52.084;5.412;2023-05-10T00:03:10;13.40;99.90
61912;DHT22;49973;52.084;5.412;2023-05-10T00:05:39;13.40;99.90
61912;DHT22;49973;52.084;5.412;2023-05-10T00:08:07;13.40;99.90
61912;DHT22;49973;52.084;5.412;2023-05-10T00:10:36;13.50;99.90
61912;DHT22;49973;52.084;5.412;2023-05-10T00:13:06;13.40;99.90
61912;DHT22;49973;52.084;5.412;2023-05-10T00:15:35;13.50;99.90
61912;DHT22;49973;52.084;5.412;2023-05-10T00:18:03;13.40;99.90
61912;DHT22;49973;52.084;5.412;2023-05-10T00:20:32;13.40;99.90
61912;DHT22;49973;52.084;5.412;2023-05-10T00:23:01;13.30;99.90
61912;DHT22;49973;52.084;5.412;2023-05-10T00:25:29;13.40;99.90
61912;DHT22;49973;52.084;5.412;2023-05-10T00:27:58;13.30;99.90
61912;DHT22;49973;52.084;5.412;2023-05-10T00:30:29;13.50;99.90
61912;DHT22;49973;52.084;5.412;2023-05-10T00:32:58;13.30;99.90
61912;DHT22;49973;52.084;5.412;2023-05-10T00:35:27;13.40;99.90
61912;DHT22;49973;52.084;5.412;2023-05-10T00:37:56;13.40;99.90
61912;DHT22;49973;52.084;5.412;2023-05-10T00:40:24;13.30;99.90
61912;DHT22;49973;52.084;5.412;2023-05-10T00:42:58;13.30;99.90
61912;DHT22;49973;52.084;5.412;2023-05-10T00:45:27;13.40;99.90
61912;DHT22;49973;52.084;5.412;2023-05-10T00:47:58;13.30;99.90
61912;DHT22;49973;52.084;5.412;2023-05-10T00:50:27;13.40;99.90
61912;DHT22;49973;52.084;5.412;2023-05-10T00:52:56;13.40;99.90
61912;DHT22;49973;52.084;5.412;2023-05-10T00:55:26;13.30;99.90
61912;DHT22;49973;52.084;5.412;2023-05-10T00:57:54;13.40;99.90
61912;DHT22;49973;52.084;5.412;2023-05-10T01:00:24;13.40;99.90
61912;DHT22;49973;52.084;5.412;2023-05-10T01:02:53;13.50;99.90
61912;DHT22;49973;52.084;5.412;2023-05-10T01:05:23;13.40;99.90
61912;DHT22;49973;52.084;5.412;2023-05-10T01:07:52;13.40;99.90
61912;DHT22;49973;52.084;5.412;2023-05-10T01:10:21;13.50;99.90
61912;DHT22;49973;52.084;5.412;2023-05-10T01:12:50;13.50;99.90
61912;DHT22;49973;52.084;5.412;2023-05-10T01:15:20;13.50;99.90
61912;DHT22;49973;52.084;5.412;2023-05-10T01:17:49;13.60;99.90
61912;DHT22;49973;52.084;5.412;2023-05-10T01:20:18;13.50;99.90
61912;DHT22;49973;52.084;5.412;2023-05-10T01:23:05;13.50;99.90
61912;DHT22;49973;52.084;5.412;2023-05-10T01:25:58;13.50;99.90
61912;DHT22;49973;52.084;5.412;2023-05-10T01:28:58;13.50;99.90
61912;DHT22;49973;52.084;5.412;2023-05-10T01:31:56;13.50;99.90
61912;DHT22;49973;52.084;5.412;2023-05-10T01:34:32;13.50;99.90
61912;DHT22;49973;52.084;5.412;2023-05-10T01:37:08;13.50;99.90
61912;DHT22;49973;52.084;5.412;2023-05-10T01:39:45;13.50;99.90
61912;DHT22;49973;52.084;5.412;2023-05-10T01:42:19;13.50;99.90
61912;DHT22;49973;52.084;5.412;2023-05-10T01:44:54;13.60;99.90
61912;DHT22;49973;52.084;5.412;2023-05-10T01:47:31;13.40;99.90
61912;DHT22;49973;52.084;5.412;2023-05-10T01:50:06;13.60;99.90
61912;DHT22;49973;52.084;5.412;2023-05-10T01:52:41;13.50;99.90
61912;DHT22;49973;52.084;5.412;2023-05-10T01:55:15;13.50;99.90
61912;DHT22;49973;52.084;5.412;2023-05-10T01:57:46;13.60;99.90
61912;DHT22;49973;52.084;5.412;2023-05-10T02:00:17;13.60;99.90
61912;DHT22;49973;52.084;5.412;2023-05-10T02:02:49;13.50;99.90
61912;DHT22;49973;52.084;5.412;2023-05-10T02:05:19;13.50;99.90
61912;DHT22;49973;52.084;5.412;2023-05-10T02:07:49;13.50;99.90
61912;DHT22;49973;52.084;5.412;2023-05-10T02:10:18;13.50;99.90
61912;DHT22;49973;52.084;5.412;2023-05-10T02:12:48;13.50;99.90
61912;DHT22;49973;52.084;5.412;2023-05-10T02:15:20;13.60;99.90
61912;DHT22;49973;52.084;5.412;2023-05-10T02:17:53;13.40;99.90
61912;DHT22;49973;52.084;5.412;2023-05-10T02:20:23;13.40;99.90
61912;DHT22;49973;52.084;5.412;2023-05-10T02:22:54;13.40;99.90
61912;DHT22;49973;52.084;5.412;2023-05-10T02:25:25;13.40;99.90
61912;DHT22;49973;52.084;5.412;2023-05-10T02:27:55;13.30;99.90
61912;DHT22;49973;52.084;5.412;2023-05-10T02:30:25;13.30;99.90
61912;DHT22;49973;52.084;5.412;2023-05-10T02:32:56;13.20;99.90
61912;DHT22;49973;52.084;5.412;2023-05-10T02:35:27;13.20;99.90
61912;DHT22;49973;52.084;5.412;2023-05-10T02:37:58;13.20;99.90
61912;DHT22;49973;52.084;5.412;2023-05-10T02:40:30;13.30;99.90
61912;DHT22;49973;52.084;5.412;2023-05-10T02:43:01;13.20;99.90
61912;DHT22;49973;52.084;5.412;2023-05-10T02:45:31;13.10;99.90
61912;DHT22;49973;52.084;5.412;2023-05-10T02:48:01;13.30;99.90
61912;DHT22;49973;52.084;5.412;2023-05-10T02:50:33;13.30;99.90
61912;DHT22;49973;52.084;5.412;2023-05-10T02:53:11;13.20;99.90
61912;DHT22;49973;52.084;5.412;2023-05-10T02:55:43;13.30;99.90
61912;DHT22;49973;52.084;5.412;2023-05-10T02:58:14;13.10;99.90
61912;DHT22;49973;52.084;5.412;2023-05-10T03:00:43;13.10;99.90
61912;DHT22;49973;52.084;5.412;2023-05-10T03:03:13;13.10;99.90
61912;DHT22;49973;52.084;5.412;2023-05-10T03:05:42;13.00;99.90
61912;DHT22;49973;52.084;5.412;2023-05-10T03:08:11;13.10;99.90
61912;DHT22;49973;52.084;5.412;2023-05-10T03:10:45;13.00;99.90
61912;DHT22;49973;52.084;5.412;2023-05-10T03:13:24;12.90;99.90
61912;DHT22;49973;52.084;5.412;2023-05-10T03:16:01;12.90;99.90
61912;DHT22;49973;52.084;5.412;2023-05-10T03:18:37;12.80;99.90
61912;DHT22;49973;52.084;5.412;2023-05-10T03:21:11;12.90;99.90
61912;DHT22;49973;52.084;5.412;2023-05-10T03:23:44;12.80;99.90
61912;DHT22;49973;52.084;5.412;2023-05-10T03:26:18;12.90;99.90
61912;DHT22;49973;52.084;5.412;2023-05-10T03:28:50;12.90;99.90
61912;DHT22;49973;52.084;5.412;2023-05-10T03:31:19;12.90;99.90
61912;DHT22;49973;52.084;5.412;2023-05-10T03:33:49;12.80;99.90
61912;DHT22;49973;52.084;5.412;2023-05-10T03:36:23;12.80;99.90
61912;DHT22;49973;52.084;5.412;2023-05-10T03:38:52;12.90;99.90
61912;DHT22;49973;52.084;5.412;2023-05-10T03:41:20;12.80;99.90
61912;DHT22;49973;52.084;5.412;2023-05-10T03:43:49;12.90;99.90
61912;DHT22;49973;52.084;5.412;2023-05-10T03:46:17;12.90;99.90
61912;DHT22;49973;52.084;5.412;2023-05-10T03:48:46;12.80;99.90
61912;DHT22;49973;52.084;5.412;2023-05-10T03:51:16;12.90;99.90
61912;DHT22;49973;52.084;5.412;2023-05-10T03:53:45;12.80;99.90
61912;DHT22;49973;52.084;5.412;2023-05-10T03:56:13;12.80;99.90
61912;DHT22;49973;52.084;5.412;2023-05-10T03:58:42;12.90;99.90
61912;DHT22;49973;52.084;5.412;2023-05-10T04:01:11;12.90;99.90
61912;DHT22;49973;52.084;5.412;2023-05-10T04:03:39;12.90;99.90
61912;DHT22;49973;52.084;5.412;2023-05-10T04:06:08;12.90;99.90
61912;DHT22;49973;52.084;5.412;2023-05-10T04:08:40;12.90;99.90
61912;DHT22;49973;52.084;5.412;2023-05-10T04:11:10;13.00;99.90
61912;DHT22;49973;52.084;5.412;2023-05-10T04:13:39;13.00;99.90
61912;DHT22;49973;52.084;5.412;2023-05-10T04:16:08;12.90;99.90
61912;DHT22;49973;52.084;5.412;2023-05-10T04:18:37;13.00;99.90
61912;DHT22;49973;52.084;5.412;2023-05-10T04:21:11;13.00;99.90
61912;DHT22;49973;52.084;5.412;2023-05-10T04:23:42;13.00;99.90
61912;DHT22;49973;52.084;5.412;2023-05-10T04:26:10;13.00;99.90
61912;DHT22;49973;52.084;5.412;2023-05-10T04:28:39;13.00;99.90
61912;DHT22;49973;52.084;5.412;2023-05-10T04:31:08;13.00;99.90
61912;DHT22;49973;52.084;5.412;2023-05-10T04:33:37;13.10;99.90
61912;DHT22;49973;52.084;5.412;2023-05-10T04:36:06;13.00;99.90
61912;DHT22;49973;52.084;5.412;2023-05-10T04:38:35;13.10;99.90
61912;DHT22;49973;52.084;5.412;2023-05-10T04:41:05;13.10;99.90
61912;DHT22;49973;52.084;5.412;2023-05-10T04:43:34;13.10;99.90
61912;DHT22;49973;52.084;5.412;2023-05-10T04:46:03;13.10;99.90
61912;DHT22;49973;52.084;5.412;2023-05-10T04:48:32;13.10;99.90
61912;DHT22;49973;52.084;5.412;2023-05-10T04:51:01;13.10;99.90
61912;DHT22;49973;52.084;5.412;2023-05-10T04:53:31;13.10;99.90
61912;DHT22;49973;52.084;5.412;2023-05-10T04:55:59;13.10;99.90
61912;DHT22;49973;52.084;5.412;2023-05-10T04:58:29;13.10;99.90
61912;DHT22;49973;52.084;5.412;2023-05-10T05:01:05;13.20;99.90
61912;DHT22;49973;52.084;5.412;2023-05-10T05:03:34;13.10;99.90
61912;DHT22;49973;52.084;5.412;2023-05-10T05:06:03;13.10;99.90
61912;DHT22;49973;52.084;5.412;2023-05-10T05:08:32;13.20;99.90
61912;DHT22;49973;52.084;5.412;2023-05-10T05:11:00;13.20;99.90
61912;DHT22;49973;52.084;5.412;2023-05-10T05:13:30;13.10;99.90
61912;DHT22;49973;52.084;5.412;2023-05-10T05:16:00;13.20;99.90
61912;DHT22;49973;52.084;5.412;2023-05-10T05:18:29;13.20;99.90
61912;DHT22;49973;52.084;5.412;2023-05-10T05:20:58;13.30;99.90
61912;DHT22;49973;52.084;5.412;2023-05-10T05:23:26;13.30;99.90
61912;DHT22;49973;52.084;5.412;2023-05-10T05:25:55;13.30;99.90
61912;DHT22;49973;52.084;5.412;2023-05-10T05:28:24;13.30;99.90
61912;DHT22;49973;52.084;5.412;2023-05-10T05:30:54;13.30;99.90
61912;DHT22;49973;52.084;5.412;2023-05-10T05:33:22;13.30;99.90
61912;DHT22;49973;52.084;5.412;2023-05-10T05:35:51;13.40;99.90
61912;DHT22;49973;52.084;5.412;2023-05-10T05:38:19;13.40;99.90
61912;DHT22;49973;52.084;5.412;2023-05-10T05:40:48;13.50;99.90
61912;DHT22;49973;52.084;5.412;2023-05-10T05:43:17;13.40;99.90
61912;DHT22;49973;52.084;5.412;2023-05-10T05:45:45;13.40;99.90
61912;DHT22;49973;52.084;5.412;2023-05-10T05:48:15;13.40;99.90
61912;DHT22;49973;52.084;5.412;2023-05-10T05:50:44;13.50;99.90
61912;DHT22;49973;52.084;5.412;2023-05-10T05:53:12;13.50;99.90
61912;DHT22;49973;52.084;5.412;2023-05-10T05:55:51;13.60;99.90
61912;DHT22;49973;52.084;5.412;2023-05-10T05:58:19;13.50;99.90
61912;DHT22;49973;52.084;5.412;2023-05-10T06:00:48;13.40;99.90
61912;DHT22;49973;52.084;5.412;2023-05-10T06:03:18;13.50;99.90
61912;DHT22;49973;52.084;5.412;2023-05-10T06:05:47;13.50;99.90
61912;DHT22;49973;52.084;5.412;2023-05-10T06:08:16;13.40;99.90
61912;DHT22;49973;52.084;5.412;2023-05-10T06:10:44;13.50;99.90
61912;DHT22;49973;52.084;5.412;2023-05-10T06:13:13;13.40;99.90
61912;DHT22;49973;52.084;5.412;2023-05-10T06:15:42;13.40;99.90
61912;DHT22;49973;52.084;5.412;2023-05-10T06:18:10;13.40;99.90
61912;DHT22;49973;52.084;5.412;2023-05-10T06:20:41;13.40;99.90
61912;DHT22;49973;52.084;5.412;2023-05-10T06:23:09;13.30;99.90
61912;DHT22;49973;52.084;5.412;2023-05-10T06:25:38;13.20;99.90
61912;DHT22;49973;52.084;5.412;2023-05-10T06:28:07;13.40;99.90
61912;DHT22;49973;52.084;5.412;2023-05-10T06:30:36;13.50;99.90
61912;DHT22;49973;52.084;5.412;2023-05-10T06:33:05;13.40;99.90
61912;DHT22;49973;52.084;5.412;2023-05-10T06:35:34;13.40;99.90
61912;DHT22;49973;52.084;5.412;2023-05-10T06:38:04;13.30;99.90
61912;DHT22;49973;52.084;5.412;2023-05-10T06:40:32;13.40;99.90
61912;DHT22;49973;52.084;5.412;2023-05-10T06:43:01;13.30;99.90
61912;DHT22;49973;52.084;5.412;2023-05-10T06:45:29;13.40;99.90
61912;DHT22;49973;52.084;5.412;2023-05-10T06:47:58;13.50;99.90
61912;DHT22;49973;52.084;5.412;2023-05-10T06:50:27;13.40;99.90
61912;DHT22;49973;52.084;5.412;2023-05-10T06:52:55;13.40;99.90
61912;DHT22;49973;52.084;5.412;2023-05-10T06:55:25;13.50;99.90
61912;DHT22;49973;52.084;5.412;2023-05-10T06:57:54;13.50;99.90
61912;DHT22;49973;52.084;5.412;2023-05-10T07:00:23;13.70;99.90
61912;DHT22;49973;52.084;5.412;2023-05-10T07:02:51;13.60;99.90
61912;DHT22;49973;52.084;5.412;2023-05-10T07:05:20;13.80;99.90
61912;DHT22;49973;52.084;5.412;2023-05-10T07:07:49;13.80;99.90
61912;DHT22;49973;52.084;5.412;2023-05-10T07:10:18;13.90;99.90
61912;DHT22;49973;52.084;5.412;2023-05-10T07:12:48;13.90;99.90
61912;DHT22;49973;52.084;5.412;2023-05-10T07:15:17;13.90;99.90
61912;DHT22;49973;52.084;5.412;2023-05-10T07:17:46;13.90;99.90
61912;DHT22;49973;52.084;5.412;2023-05-10T07:20:15;13.90;99.90
61912;DHT22;49973;52.084;5.412;2023-05-10T07:22:43;13.90;99.90
61912;DHT22;49973;52.084;5.412;2023-05-10T07:25:12;13.90;99.90
61912;DHT22;49973;52.084;5.412;2023-05-10T07:27:40;13.90;99.90
61912;DHT22;49973;52.084;5.412;2023-05-10T07:30:12;14.00;99.90
61912;DHT22;49973;52.084;5.412;2023-05-10T07:32:40;14.00;99.90
61912;DHT22;49973;52.084;5.412;2023-05-10T07:35:09;14.10;99.90
61912;DHT22;49973;52.084;5.412;2023-05-10T07:37:38;14.10;99.90
61912;DHT22;49973;52.084;5.412;2023-05-10T07:40:08;14.10;99.90
61912;DHT22;49973;52.084;5.412;2023-05-10T07:42:36;14.20;99.90
61912;DHT22;49973;52.084;5.412;2023-05-10T07:45:06;14.20;99.90
61912;DHT22;49973;52.084;5.412;2023-05-10T07:47:36;14.20;99.90
61912;DHT22;49973;52.084;5.412;2023-05-10T07:50:06;14.20;99.90
61912;DHT22;49973;52.084;5.412;2023-05-10T07:52:35;14.20;99.90
61912;DHT22;49973;52.084;5.412;2023-05-10T07:55:04;14.30;99.90
61912;DHT22;49973;52.084;5.412;2023-05-10T07:57:34;14.40;99.90
61912;DHT22;49973;52.084;5.412;2023-05-10T08:00:04;14.50;99.90
61912;DHT22;49973;52.084;5.412;2023-05-10T08:02:40;14.50;99.90
61912;DHT22;49973;52.084;5.412;2023-05-10T08:05:09;14.60;99.90
61912;DHT22;49973;52.084;5.412;2023-05-10T08:07:38;14.60;99.90
61912;DHT22;49973;52.084;5.412;2023-05-10T08:10:08;14.50;99.90
61912;DHT22;49973;52.084;5.412;2023-05-10T08:12:38;14.40;99.90
61912;DHT22;49973;52.084;5.412;2023-05-10T08:15:08;14.40;99.90
61912;DHT22;49973;52.084;5.412;2023-05-10T08:17:37;14.40;99.90
61912;DHT22;49973;52.084;5.412;2023-05-10T08:20:08;14.40;99.90
61912;DHT22;49973;52.084;5.412;2023-05-10T08:22:37;14.40;99.90
61912;DHT22;49973;52.084;5.412;2023-05-10T08:25:06;14.40;99.90
61912;DHT22;49973;52.084;5.412;2023-05-10T08:27:35;14.40;99.90
61912;DHT22;49973;52.084;5.412;2023-05-10T08:30:05;14.50;99.90
61912;DHT22;49973;52.084;5.412;2023-05-10T08:32:33;14.50;99.90
61912;DHT22;49973;52.084;5.412;2023-05-10T08:35:05;14.60;99.90
61912;DHT22;49973;52.084;5.412;2023-05-10T08:37:35;14.70;99.90
61912;DHT22;49973;52.084;5.412;2023-05-10T08:40:05;14.80;99.90
61912;DHT22;49973;52.084;5.412;2023-05-10T08:42:34;14.90;99.90
61912;DHT22;49973;52.084;5.412;2023-05-10T08:45:07;15.10;99.90
61912;DHT22;49973;52.084;5.412;2023-05-10T08:47:36;15.00;99.90
61912;DHT22;49973;52.084;5.412;2023-05-10T08:50:06;15.00;99.90
61912;DHT22;49973;52.084;5.412;2023-05-10T08:52:38;15.10;99.90
61912;DHT22;49973;52.084;5.412;2023-05-10T08:55:08;15.10;99.90
61912;DHT22;49973;52.084;5.412;2023-05-10T08:57:37;15.10;99.90
61912;DHT22;49973;52.084;5.412;2023-05-10T09:00:08;15.10;99.90
61912;DHT22;49973;52.084;5.412;2023-05-10T09:02:37;15.00;99.90
61912;DHT22;49973;52.084;5.412;2023-05-10T09:05:07;14.90;99.90
61912;DHT22;49973;52.084;5.412;2023-05-10T09:07:38;14.80;99.90
61912;DHT22;49973;52.084;5.412;2023-05-10T09:10:08;14.80;99.90
61912;DHT22;49973;52.084;5.412;2023-05-10T09:12:37;14.70;99.90
61912;DHT22;49973;52.084;5.412;2023-05-10T09:15:07;14.80;99.90
61912;DHT22;49973;52.084;5.412;2023-05-10T09:17:38;14.80;99.90
61912;DHT22;49973;52.084;5.412;2023-05-10T09:20:09;14.90;99.90
61912;DHT22;49973;52.084;5.412;2023-05-10T09:22:39;14.90;99.90
61912;DHT22;49973;52.084;5.412;2023-05-10T09:25:09;15.10;99.90
61912;DHT22;49973;52.084;5.412;2023-05-10T09:27:39;15.20;99.90
61912;DHT22;49973;52.084;5.412;2023-05-10T09:30:08;15.40;99.90
61912;DHT22;49973;52.084;5.412;2023-05-10T09:32:38;15.50;99.90
61912;DHT22;49973;52.084;5.412;2023-05-10T09:35:10;15.70;99.90
61912;DHT22;49973;52.084;5.412;2023-05-10T09:37:42;15.80;99.90
61912;DHT22;49973;52.084;5.412;2023-05-10T09:40:13;16.00;99.90
61912;DHT22;49973;52.084;5.412;2023-05-10T09:42:43;16.20;99.90
61912;DHT22;49973;52.084;5.412;2023-05-10T09:45:19;16.50;99.90
61912;DHT22;49973;52.084;5.412;2023-05-10T09:47:48;16.80;99.90
61912;DHT22;49973;52.084;5.412;2023-05-10T09:50:16;17.20;99.90
61912;DHT22;49973;52.084;5.412;2023-05-10T09:52:51;17.30;99.90
61912;DHT22;49973;52.084;5.412;2023-05-10T09:55:22;17.50;99.90
61912;DHT22;49973;52.084;5.412;2023-05-10T09:58:00;17.60;99.90
61912;DHT22;49973;52.084;5.412;2023-05-10T10:00:35;17.60;99.90
61912;DHT22;49973;52.084;5.412;2023-05-10T10:03:04;17.70;99.90
61912;DHT22;49973;52.084;5.412;2023-05-10T10:05:34;17.60;99.90
61912;DHT22;49973;52.084;5.412;2023-05-10T10:08:05;17.60;99.90
61912;DHT22;49973;52.084;5.412;2023-05-10T10:10:34;17.60;99.90
61912;DHT22;49973;52.084;5.412;2023-05-10T10:13:02;17.50;99.90
61912;DHT22;49973;52.084;5.412;2023-05-10T10:15:32;17.60;99.90
61912;DHT22;49973;52.084;5.412;2023-05-10T10:18:01;17.80;99.90
61912;DHT22;49973;52.084;5.412;2023-05-10T10:20:31;17.80;99.90
61912;DHT22;49973;52.084;5.412;2023-05-10T10:23:00;18.10;99.90
61912;DHT22;49973;52.084;5.412;2023-05-10T10:25:30;18.30;99.90
61912;DHT22;49973;52.084;5.412;2023-05-10T10:28:09;18.50;99.90
61912;DHT22;49973;52.084;5.412;2023-05-10T10:30:41;18.60;99.90
61912;DHT22;49973;52.084;5.412;2023-05-10T10:33:30;18.70;99.90
61912;DHT22;49973;52.084;5.412;2023-05-10T10:36:02;18.70;99.90
61912;DHT22;49973;52.084;5.412;2023-05-10T10:41:31;18.40;99.90
61912;DHT22;49973;52.084;5.412;2023-05-10T10:44:26;18.20;99.90
61912;DHT22;49973;52.084;5.412;2023-05-10T10:47:06;18.00;99.90
61912;DHT22;49973;52.084;5.412;2023-05-10T10:49:43;17.90;99.90
61912;DHT22;49973;52.084;5.412;2023-05-10T10:52:18;17.70;99.90
61912;DHT22;49973;52.084;5.412;2023-05-10T10:54:52;17.60;99.90
61912;DHT22;49973;52.084;5.412;2023-05-10T10:57:24;17.50;99.90
61912;DHT22;49973;52.084;5.412;2023-05-10T11:00:19;17.50;99.90
61912;DHT22;49973;52.084;5.412;2023-05-10T11:02:49;17.50;99.90
61912;DHT22;49973;52.084;5.412;2023-05-10T11:08:14;17.50;99.90
61912;DHT22;49973;52.084;5.412;2023-05-10T11:10:52;17.60;99.90
61912;DHT22;49973;52.084;5.412;2023-05-10T11:13:30;17.60;99.90
61912;DHT22;49973;52.084;5.412;2023-05-10T11:16:10;17.70;99.90
61912;DHT22;49973;52.084;5.412;2023-05-10T11:18:39;17.60;99.90
61912;DHT22;49973;52.084;5.412;2023-05-10T11:21:09;17.60;99.90
61912;DHT22;49973;52.084;5.412;2023-05-10T11:23:49;17.60;99.90
61912;DHT22;49973;52.084;5.412;2023-05-10T11:26:18;17.40;99.90
61912;DHT22;49973;52.084;5.412;2023-05-10T11:28:53;17.40;99.90
61912;DHT22;49973;52.084;5.412;2023-05-10T11:31:22;17.50;99.90
61912;DHT22;49973;52.084;5.412;2023-05-10T11:33:55;17.60;99.90
61912;DHT22;49973;52.084;5.412;2023-05-10T11:36:25;17.80;99.90
61912;DHT22;49973;52.084;5.412;2023-05-10T11:38:55;18.10;99.90
61912;DHT22;49973;52.084;5.412;2023-05-10T11:41:26;18.40;99.90
61912;DHT22;49973;52.084;5.412;2023-05-10T11:43:56;18.80;99.90
61912;DHT22;49973;52.084;5.412;2023-05-10T11:46:26;19.20;99.90
61912;DHT22;49973;52.084;5.412;2023-05-10T11:48:58;19.50;99.90
61912;DHT22;49973;52.084;5.412;2023-05-10T11:51:29;19.80;99.90
61912;DHT22;49973;52.084;5.412;2023-05-10T11:53:58;20.10;99.90
61912;DHT22;49973;52.084;5.412;2023-05-10T11:56:27;20.20;99.90
61912;DHT22;49973;52.084;5.412;2023-05-10T11:58:57;20.30;99.90
61912;DHT22;49973;52.084;5.412;2023-05-10T12:01:28;20.40;99.90
61912;DHT22;49973;52.084;5.412;2023-05-10T12:03:57;20.30;99.90
61912;DHT22;49973;52.084;5.412;2023-05-10T12:06:28;20.20;99.90
61912;DHT22;49973;52.084;5.412;2023-05-10T12:08:59;20.10;99.90
61912;DHT22;49973;52.084;5.412;2023-05-10T12:11:28;20.00;99.90
61912;DHT22;49973;52.084;5.412;2023-05-10T12:13:58;19.90;99.90
61912;DHT22;49973;52.084;5.412;2023-05-10T12:16:29;19.80;99.90
61912;DHT22;49973;52.084;5.412;2023-05-10T12:18:59;19.70;99.90
61912;DHT22;49973;52.084;5.412;2023-05-10T12:21:29;19.60;99.90
61912;DHT22;49973;52.084;5.412;2023-05-10T12:24:01;19.30;99.90
61912;DHT22;49973;52.084;5.412;2023-05-10T12:26:29;19.40;99.90
61912;DHT22;49973;52.084;5.412;2023-05-10T12:29:13;19.30;99.90
61912;DHT22;49973;52.084;5.412;2023-05-10T12:31:50;19.30;99.90
61912;DHT22;49973;52.084;5.412;2023-05-10T12:34:26;19.50;99.90
61912;DHT22;49973;52.084;5.412;2023-05-10T12:36:54;19.50;99.90
61912;DHT22;49973;52.084;5.412;2023-05-10T12:39:23;19.60;99.90
61912;DHT22;49973;52.084;5.412;2023-05-10T12:41:52;19.50;99.90
61912;DHT22;49973;52.084;5.412;2023-05-10T12:44:22;19.60;99.90
61912;DHT22;49973;52.084;5.412;2023-05-10T12:46:51;19.80;99.90
61912;DHT22;49973;52.084;5.412;2023-05-10T12:49:20;19.80;99.90
61912;DHT22;49973;52.084;5.412;2023-05-10T12:51:48;19.70;99.90
61912;DHT22;49973;52.084;5.412;2023-05-10T12:54:17;19.60;99.90
61912;DHT22;49973;52.084;5.412;2023-05-10T12:56:45;19.40;99.90
61912;DHT22;49973;52.084;5.412;2023-05-10T12:59:14;19.30;99.90
61912;DHT22;49973;52.084;5.412;2023-05-10T13:01:44;19.20;99.90
61912;DHT22;49973;52.084;5.412;2023-05-10T13:04:12;19.00;99.90
61912;DHT22;49973;52.084;5.412;2023-05-10T13:06:41;18.80;99.90
61912;DHT22;49973;52.084;5.412;2023-05-10T13:09:10;18.60;99.90
61912;DHT22;49973;52.084;5.412;2023-05-10T13:11:38;18.30;99.90
61912;DHT22;49973;52.084;5.412;2023-05-10T13:14:07;18.10;99.90
61912;DHT22;49973;52.084;5.412;2023-05-10T13:16:36;17.80;99.90
61912;DHT22;49973;52.084;5.412;2023-05-10T13:19:06;17.50;99.90
61912;DHT22;49973;52.084;5.412;2023-05-10T13:21:34;17.30;99.90
61912;DHT22;49973;52.084;5.412;2023-05-10T13:24:03;17.10;99.90
61912;DHT22;49973;52.084;5.412;2023-05-10T13:26:32;16.80;99.90
61912;DHT22;49973;52.084;5.412;2023-05-10T13:29:01;16.50;99.90
61912;DHT22;49973;52.084;5.412;2023-05-10T13:31:30;16.20;99.90
61912;DHT22;49973;52.084;5.412;2023-05-10T13:33:59;15.90;99.90
61912;DHT22;49973;52.084;5.412;2023-05-10T13:36:29;15.70;99.90
61912;DHT22;49973;52.084;5.412;2023-05-10T13:38:57;15.50;99.90
61912;DHT22;49973;52.084;5.412;2023-05-10T13:41:26;15.50;99.90
61912;DHT22;49973;52.084;5.412;2023-05-10T13:43:54;15.30;99.90
61912;DHT22;49973;52.084;5.412;2023-05-10T13:46:23;15.10;99.90
61912;DHT22;49973;52.084;5.412;2023-05-10T13:48:52;15.00;99.90
61912;DHT22;49973;52.084;5.412;2023-05-10T13:51:20;15.00;99.90
61912;DHT22;49973;52.084;5.412;2023-05-10T13:53:50;14.90;99.90
61912;DHT22;49973;52.084;5.412;2023-05-10T13:56:19;14.90;99.90
61912;DHT22;49973;52.084;5.412;2023-05-10T13:58:47;14.90;99.90
61912;DHT22;49973;52.084;5.412;2023-05-10T14:01:16;14.80;99.90
61912;DHT22;49973;52.084;5.412;2023-05-10T14:03:45;14.80;99.90
61912;DHT22;49973;52.084;5.412;2023-05-10T14:06:13;14.80;99.90
61912;DHT22;49973;52.084;5.412;2023-05-10T14:08:42;14.70;99.90
61912;DHT22;49973;52.084;5.412;2023-05-10T14:11:12;14.70;99.90
61912;DHT22;49973;52.084;5.412;2023-05-10T14:13:41;14.70;99.90
61912;DHT22;49973;52.084;5.412;2023-05-10T14:16:09;14.80;99.90
61912;DHT22;49973;52.084;5.412;2023-05-10T14:18:38;14.70;99.90
61912;DHT22;49973;52.084;5.412;2023-05-10T14:21:07;14.70;99.90
61912;DHT22;49973;52.084;5.412;2023-05-10T14:23:35;14.60;99.90
61912;DHT22;49973;52.084;5.412;2023-05-10T14:26:04;14.60;99.90
61912;DHT22;49973;52.084;5.412;2023-05-10T14:28:34;14.50;99.90
61912;DHT22;49973;52.084;5.412;2023-05-10T14:31:03;14.50;99.90
61912;DHT22;49973;52.084;5.412;2023-05-10T14:33:32;14.50;99.90
61912;DHT22;49973;52.084;5.412;2023-05-10T14:36:01;14.50;99.90
61912;DHT22;49973;52.084;5.412;2023-05-10T14:38:30;14.50;99.90
61912;DHT22;49973;52.084;5.412;2023-05-10T14:40:59;14.50;99.90
61912;DHT22;49973;52.084;5.412;2023-05-10T14:43:27;14.60;99.90
61912;DHT22;49973;52.084;5.412;2023-05-10T14:45:59;14.50;99.90
61912;DHT22;49973;52.084;5.412;2023-05-10T14:48:27;14.50;99.90
61912;DHT22;49973;52.084;5.412;2023-05-10T14:50:56;14.50;99.90
61912;DHT22;49973;52.084;5.412;2023-05-10T14:53:24;14.50;99.90
61912;DHT22;49973;52.084;5.412;2023-05-10T14:55:53;14.60;99.90
61912;DHT22;49973;52.084;5.412;2023-05-10T14:58:22;14.60;99.90
61912;DHT22;49973;52.084;5.412;2023-05-10T15:00:50;14.70;99.90
61912;DHT22;49973;52.084;5.412;2023-05-10T15:03:21;14.80;99.90
61912;DHT22;49973;52.084;5.412;2023-05-10T15:05:50;14.80;99.90
61912;DHT22;49973;52.084;5.412;2023-05-10T15:08:19;14.80;99.90
61912;DHT22;49973;52.084;5.412;2023-05-10T15:10:47;14.90;99.90
61912;DHT22;49973;52.084;5.412;2023-05-10T15:13:16;15.00;99.90
61912;DHT22;49973;52.084;5.412;2023-05-10T15:15:45;15.10;99.90
61912;DHT22;49973;52.084;5.412;2023-05-10T15:18:13;15.30;99.90
61912;DHT22;49973;52.084;5.412;2023-05-10T15:20:43;15.40;99.90
61912;DHT22;49973;52.084;5.412;2023-05-10T15:23:12;15.60;99.90
61912;DHT22;49973;52.084;5.412;2023-05-10T15:25:40;15.70;99.90
61912;DHT22;49973;52.084;5.412;2023-05-10T15:28:09;15.70;99.90
61912;DHT22;49973;52.084;5.412;2023-05-10T15:30:38;15.60;99.90
61912;DHT22;49973;52.084;5.412;2023-05-10T15:33:06;15.60;99.90
61912;DHT22;49973;52.084;5.412;2023-05-10T15:35:35;15.60;99.90
61912;DHT22;49973;52.084;5.412;2023-05-10T15:38:06;15.70;99.90
61912;DHT22;49973;52.084;5.412;2023-05-10T15:40:35;15.70;99.90
61912;DHT22;49973;52.084;5.412;2023-05-10T15:43:04;15.80;99.90
61912;DHT22;49973;52.084;5.412;2023-05-10T15:45:33;15.90;99.90
61912;DHT22;49973;52.084;5.412;2023-05-10T15:48:04;16.10;99.90
61912;DHT22;49973;52.084;5.412;2023-05-10T15:50:33;16.20;99.90
61912;DHT22;49973;52.084;5.412;2023-05-10T15:53:01;16.40;99.90
61912;DHT22;49973;52.084;5.412;2023-05-10T15:55:31;16.40;99.90